Terminal Aerodrome Forecast
Issued by NWS

Home | Current Version | Previous Version | Text Only | Print | Product List | Glossary On
Versions: 1 2 3 4 5 6 7 8 9 10 11 12 13 14 15 16
000
FTUS42 KTAE 022120 AAA
TAFECP
TAF AMD
KECP 022120Z 0221/0318 13007KT P6SM VCTS FEW026CB BKN045 OVC060
      TEMPO 0221/0223 VRB10G20KT 2SM +TSRA BKN025CB
     FM022300 VRB03KT P6SM FEW025
     FM031400 20008KT P6SM SCT025=

USA.gov is the U.S. government's official web portal to all federal, state and local government web resources and services.